createdAt,value
2023-03-06T00:01:02.664Z,95551.48
2023-03-06T00:03:30.541Z,95549.50
2023-03-06T00:05:59.029Z,95553.11
2023-03-06T00:08:28.750Z,95554.73
2023-03-06T00:10:57.899Z,95553.36
2023-03-06T00:13:26.643Z,95553.16
2023-03-06T00:15:54.756Z,95552.34
2023-03-06T00:18:22.615Z,95555.30
2023-03-06T00:20:50.475Z,95553.88
2023-03-06T00:23:18.595Z,95552.05
2023-03-06T00:25:47.656Z,95553.33
2023-03-06T00:28:15.878Z,95548.48
2023-03-06T00:30:46.061Z,95549.35
2023-03-06T00:33:13.985Z,95549.45
2023-03-06T00:35:42.242Z,95549.63
2023-03-06T00:38:13.419Z,95550.28
2023-03-06T00:40:41.381Z,95550.61
2023-03-06T00:43:09.558Z,95550.69
2023-03-06T00:45:37.672Z,95550.63
2023-03-06T00:48:05.941Z,95552.06
2023-03-06T00:50:35.237Z,95549.84
2023-03-06T00:53:03.220Z,95553.36
2023-03-06T00:55:32.898Z,95553.60
2023-03-06T00:58:00.961Z,95557.58
2023-03-06T01:00:29.303Z,95551.23
2023-03-06T01:02:57.153Z,95549.14
2023-03-06T01:05:25.080Z,95550.34
2023-03-06T01:07:53.079Z,95550.45
2023-03-06T01:10:21.043Z,95548.76
2023-03-06T01:12:48.924Z,95551.98
2023-03-06T01:15:16.813Z,95548.10
2023-03-06T01:17:44.812Z,95551.96
2023-03-06T01:20:15.151Z,95556.66
2023-03-06T01:22:43.325Z,95554.97
2023-03-06T01:25:11.322Z,95558.54
2023-03-06T01:27:39.153Z,95557.64
2023-03-06T01:30:07.794Z,95560.36
2023-03-06T01:32:35.731Z,95560.76
2023-03-06T01:35:04.388Z,95559.20
2023-03-06T01:37:32.621Z,95558.97
2023-03-06T01:40:00.597Z,95552.44
2023-03-06T01:42:28.444Z,95552.73
2023-03-06T01:45:03.942Z,95552.83
2023-03-06T01:47:31.976Z,95551.17
2023-03-06T01:50:02.273Z,95555.42
2023-03-06T01:52:34.829Z,95554.20
2023-03-06T01:55:10.904Z,95550.59
2023-03-06T01:57:43.933Z,95549.48
2023-03-06T02:00:16.572Z,95552.14
2023-03-06T02:02:51.318Z,95551.83
2023-03-06T02:05:19.900Z,95554.92
2023-03-06T02:07:50.081Z,95559.07
2023-03-06T02:10:19.695Z,95557.31
2023-03-06T02:12:49.265Z,95558.42
2023-03-06T02:15:20.720Z,95558.51
2023-03-06T02:17:51.547Z,95557.71
2023-03-06T02:20:31.375Z,95563.11
2023-03-06T02:23:08.530Z,95562.36
2023-03-06T02:25:43.535Z,95561.75
2023-03-06T02:28:15.338Z,95563.08
2023-03-06T02:30:45.982Z,95560.88
2023-03-06T02:33:17.157Z,95560.52
2023-03-06T02:35:56.152Z,95560.48
2023-03-06T02:38:29.174Z,95561.07
2023-03-06T02:40:58.200Z,95562.57
2023-03-06T02:43:34.411Z,95560.35
2023-03-06T02:46:03.401Z,95562.05
2023-03-06T02:48:31.435Z,95558.99
2023-03-06T02:50:59.354Z,95559.73
2023-03-06T02:53:27.389Z,95558.40
2023-03-06T02:55:55.603Z,95553.85
2023-03-06T02:58:23.516Z,95554.40
2023-03-06T03:00:51.586Z,95558.30
2023-03-06T03:03:20.234Z,95559.64
2023-03-06T03:05:48.086Z,95563.77
2023-03-06T03:08:22.612Z,95562.27
2023-03-06T03:10:52.455Z,95562.69
2023-03-06T03:13:21.075Z,95561.33
2023-03-06T03:16:04.599Z,95563.78
2023-03-06T03:18:32.862Z,95560.67
2023-03-06T03:21:01.266Z,95557.15
2023-03-06T03:23:29.400Z,95558.44
2023-03-06T03:26:08.332Z,95553.21
2023-03-06T03:28:36.991Z,95555.56
2023-03-06T03:31:07.280Z,95557.56
2023-03-06T03:33:36.019Z,95554.35
2023-03-06T03:36:06.501Z,95552.62
2023-03-06T03:38:35.432Z,95554.70
2023-03-06T03:41:04.502Z,95559.61
2023-03-06T03:43:32.794Z,95559.29
2023-03-06T03:46:00.805Z,95558.48
2023-03-06T03:48:29.226Z,95556.33
2023-03-06T03:51:06.705Z,95552.73
2023-03-06T03:53:36.217Z,95556.28
2023-03-06T03:56:37.192Z,95557.27
2023-03-06T04:00:21.531Z,95556.19
2023-03-06T04:15:56.313Z,95581.00
2023-03-06T04:19:31.168Z,95576.77
2023-03-06T04:23:04.222Z,95579.71
2023-03-06T04:26:36.257Z,95580.33
2023-03-06T04:30:31.472Z,95578.15
2023-03-06T04:34:33.562Z,95574.94
2023-03-06T04:37:50.187Z,95582.52
2023-03-06T04:41:35.218Z,95582.54
2023-03-06T04:45:07.256Z,95582.77
2023-03-06T04:48:54.167Z,95573.21
2023-03-06T04:55:42.274Z,95576.66
2023-03-06T04:58:11.720Z,95575.96
2023-03-06T05:00:39.789Z,95577.60
2023-03-06T05:03:09.063Z,95579.91
2023-03-06T05:05:36.947Z,95582.02
2023-03-06T05:08:05.293Z,95582.95
2023-03-06T05:10:33.572Z,95585.30
2023-03-06T05:13:01.538Z,95586.42
2023-03-06T05:15:29.531Z,95592.34
2023-03-06T05:17:57.525Z,95589.50
2023-03-06T05:20:26.240Z,95589.52
2023-03-06T05:22:55.112Z,95594.42
2023-03-06T05:25:23.233Z,95598.91
2023-03-06T05:27:51.503Z,95600.88
2023-03-06T05:30:21.219Z,95598.39
2023-03-06T05:32:50.204Z,95602.99
2023-03-06T05:35:21.286Z,95606.14
2023-03-06T05:37:50.149Z,95607.98
2023-03-06T05:40:18.941Z,95611.05
2023-03-06T05:42:47.093Z,95611.58
2023-03-06T05:45:17.030Z,95607.85
2023-03-06T05:47:44.970Z,95609.11
2023-03-06T05:50:14.726Z,95608.58
2023-03-06T05:52:42.788Z,95609.25
2023-03-06T05:55:12.614Z,95614.73
2023-03-06T05:57:40.560Z,95617.74
2023-03-06T06:00:09.985Z,95619.77
2023-03-06T06:02:43.549Z,95623.34
2023-03-06T06:05:13.174Z,95624.28
2023-03-06T06:07:43.703Z,95625.13
2023-03-06T06:10:45.175Z,95622.48
2023-03-06T06:14:33.259Z,95621.33
2023-03-06T06:18:08.189Z,95623.45
2023-03-06T06:21:52.600Z,95625.20
2023-03-06T06:25:02.251Z,95626.66
2023-03-06T06:28:55.215Z,95624.14
2023-03-06T06:32:49.982Z,95625.95
2023-03-06T06:37:23.337Z,95630.27
2023-03-06T06:40:33.581Z,95629.08
2023-03-06T06:43:52.854Z,95628.63
2023-03-06T06:47:24.510Z,95631.80
2023-03-06T06:50:17.929Z,95626.41
2023-03-06T06:53:19.246Z,95631.33
2023-03-06T06:55:55.288Z,95635.34
2023-03-06T06:58:44.555Z,95635.75
2023-03-06T07:01:17.162Z,95635.29
2023-03-06T07:04:19.615Z,95632.80
2023-03-06T07:07:25.548Z,95633.58
2023-03-06T07:10:00.262Z,95640.52
2023-03-06T07:12:28.146Z,95642.17
2023-03-06T07:14:56.068Z,95642.57
2023-03-06T07:17:23.992Z,95644.14
2023-03-06T07:19:52.290Z,95641.16
2023-03-06T07:22:20.519Z,95643.09
2023-03-06T07:24:49.358Z,95640.86
2023-03-06T07:27:17.587Z,95648.02
2023-03-06T07:29:45.857Z,95650.07
2023-03-06T07:35:19.756Z,95645.83
2023-03-06T07:37:55.658Z,95646.40
2023-03-06T07:43:43.082Z,95650.39
2023-03-06T07:46:13.329Z,95649.48
2023-03-06T07:48:42.102Z,95650.86
2023-03-06T07:51:17.059Z,95648.36
2023-03-06T07:53:48.401Z,95646.88
2023-03-06T07:56:16.497Z,95649.04
2023-03-06T07:58:46.803Z,95654.32
2023-03-06T08:01:17.872Z,95646.13
2023-03-06T08:03:45.965Z,95650.34
2023-03-06T08:06:18.522Z,95651.39
2023-03-06T08:08:47.915Z,95656.06
2023-03-06T08:11:17.869Z,95657.17
2023-03-06T08:13:46.804Z,95654.77
2023-03-06T08:16:17.337Z,95656.91
2023-03-06T08:18:46.577Z,95663.91
2023-03-06T08:21:17.863Z,95657.64
2023-03-06T08:23:47.269Z,95658.59
2023-03-06T08:26:19.149Z,95662.20
2023-03-06T08:28:48.076Z,95663.68
2023-03-06T08:31:30.340Z,95665.66
2023-03-06T08:34:23.480Z,95666.80
2023-03-06T08:36:53.229Z,95670.39
2023-03-06T08:39:31.162Z,95672.20
2023-03-06T08:42:06.145Z,95672.08
2023-03-06T08:44:37.656Z,95673.78
2023-03-06T08:47:05.812Z,95675.33
2023-03-06T08:49:45.742Z,95674.94
2023-03-06T08:55:19.442Z,95669.66
2023-03-06T08:57:52.319Z,95673.00
2023-03-06T09:00:30.866Z,95671.78
2023-03-06T09:03:06.511Z,95671.20
2023-03-06T09:05:42.842Z,95671.79
2023-03-06T09:08:36.915Z,95674.51
2023-03-06T09:11:09.633Z,95677.20
2023-03-06T09:13:38.697Z,95681.23
2023-03-06T09:16:07.444Z,95679.90
2023-03-06T09:18:37.632Z,95679.84
2023-03-06T09:21:11.825Z,95677.65
2023-03-06T09:23:49.844Z,95685.58
2023-03-06T09:31:05.874Z,95687.70
2023-03-06T09:33:45.528Z,95683.90
2023-03-06T09:36:19.639Z,95689.22
2023-03-06T09:38:52.943Z,95686.90
2023-03-06T09:41:37.576Z,95687.41
2023-03-06T09:44:34.472Z,95684.16
2023-03-06T09:47:47.822Z,95685.23
2023-03-06T09:50:26.141Z,95687.00
2023-03-06T09:53:24.316Z,95685.65
2023-03-06T09:56:02.482Z,95685.04
2023-03-06T09:58:42.502Z,95683.95
2023-03-06T10:01:22.347Z,95682.26
2023-03-06T10:04:14.609Z,95683.14
2023-03-06T10:06:54.431Z,95682.20
2023-03-06T10:09:38.355Z,95675.92
2023-03-06T10:12:28.544Z,95677.89
2023-03-06T10:15:06.832Z,95677.40
2023-03-06T10:17:37.858Z,95676.86
2023-03-06T10:20:19.971Z,95672.02
2023-03-06T10:23:29.138Z,95681.80
2023-03-06T10:26:03.440Z,95675.38
2023-03-06T10:28:50.452Z,95673.41
2023-03-06T10:31:25.049Z,95671.41
2023-03-06T10:33:58.391Z,95673.11
2023-03-06T10:36:29.919Z,95669.79
2023-03-06T10:38:59.721Z,95671.45
2023-03-06T10:41:36.097Z,95663.95
2023-03-06T10:44:24.462Z,95658.36
2023-03-06T10:46:54.077Z,95654.02
2023-03-06T10:49:40.698Z,95648.34
2023-03-06T10:52:30.389Z,95651.91
2023-03-06T10:55:28.725Z,95648.96
2023-03-06T10:57:57.939Z,95647.77
2023-03-06T11:00:33.455Z,95643.84
2023-03-06T11:03:21.095Z,95633.38
2023-03-06T11:06:03.004Z,95630.44
2023-03-06T11:08:31.805Z,95629.88
2023-03-06T11:11:07.556Z,95632.52
2023-03-06T11:13:39.689Z,95625.46
2023-03-06T11:16:32.138Z,95628.85
2023-03-06T11:19:05.628Z,95621.35
2023-03-06T11:21:36.893Z,95616.87
2023-03-06T11:24:15.846Z,95614.20
2023-03-06T11:26:51.944Z,95614.08
2023-03-06T11:29:38.715Z,95610.83
2023-03-06T11:32:25.292Z,95609.47
2023-03-06T11:35:03.221Z,95608.14
2023-03-06T11:37:45.926Z,95604.71
2023-03-06T11:40:21.362Z,95604.66
2023-03-06T11:43:02.083Z,95593.59
2023-03-06T11:45:43.197Z,95594.16
2023-03-06T11:48:24.881Z,95582.73
2023-03-06T11:50:57.374Z,95583.18
2023-03-06T11:53:33.740Z,95578.27
2023-03-06T11:56:22.897Z,95577.16
2023-03-06T11:59:16.527Z,95569.34
2023-03-06T12:02:00.761Z,95567.64
2023-03-06T12:04:55.911Z,95567.23
2023-03-06T12:07:35.374Z,95556.92
2023-03-06T12:10:18.991Z,95555.50
2023-03-06T12:13:19.128Z,95555.08
2023-03-06T12:16:14.884Z,95564.35
2023-03-06T12:19:07.230Z,95561.29
2023-03-06T12:22:15.017Z,95561.08
2023-03-06T12:25:20.522Z,95555.30
2023-03-06T12:28:27.638Z,95549.73
2023-03-06T12:31:26.113Z,95545.73
2023-03-06T12:34:18.225Z,95541.61
2023-03-06T12:37:18.706Z,95542.52
2023-03-06T12:40:37.443Z,95547.39
2023-03-06T12:43:41.112Z,95542.62
2023-03-06T12:46:20.595Z,95538.83
2023-03-06T12:49:08.596Z,95539.06
2023-03-06T12:51:56.305Z,95536.95
2023-03-06T12:54:40.301Z,95536.52
2023-03-06T12:57:23.565Z,95531.58
2023-03-06T12:59:53.194Z,95529.19
2023-03-06T13:02:49.104Z,95522.75
2023-03-06T13:05:35.785Z,95514.23
2023-03-06T13:08:40.092Z,95511.49
2023-03-06T13:11:29.592Z,95509.52
2023-03-06T13:13:58.052Z,95504.71
2023-03-06T13:16:33.558Z,95493.60
2023-03-06T13:19:17.636Z,95488.47
2023-03-06T13:22:02.475Z,95486.61
2023-03-06T13:24:37.337Z,95488.49
2023-03-06T13:27:13.912Z,95491.13
2023-03-06T13:29:50.231Z,95492.65
2023-03-06T13:32:28.351Z,95492.21
2023-03-06T13:34:56.431Z,95492.08
2023-03-06T13:37:48.790Z,95492.38
2023-03-06T13:40:27.430Z,95492.50
2023-03-06T13:43:18.808Z,95490.98
2023-03-06T13:45:48.997Z,95489.90
2023-03-06T13:48:44.815Z,95481.33
2023-03-06T13:51:26.331Z,95478.72
2023-03-06T13:54:18.568Z,95476.67
2023-03-06T13:57:09.228Z,95472.50
2023-03-06T14:00:09.834Z,95469.13
2023-03-06T14:03:09.521Z,95465.77
2023-03-06T14:05:45.509Z,95468.91
2023-03-06T14:08:23.237Z,95468.21
2023-03-06T14:11:22.647Z,95467.39
2023-03-06T14:14:06.770Z,95469.95
2023-03-06T14:16:50.163Z,95467.64
2023-03-06T14:19:20.116Z,95462.98
2023-03-06T14:21:54.853Z,95459.81
2023-03-06T14:27:43.859Z,95456.05
2023-03-06T14:30:18.768Z,95449.35
2023-03-06T14:32:52.950Z,95449.55
2023-03-06T14:35:31.000Z,95447.91
2023-03-06T14:38:02.826Z,95456.86
2023-03-06T14:40:41.100Z,95456.52
2023-03-06T14:43:12.668Z,95456.88
2023-03-06T14:45:51.571Z,95451.11
2023-03-06T14:48:38.624Z,95448.52
2023-03-06T14:51:14.442Z,95446.70
2023-03-06T14:53:45.697Z,95440.60
2023-03-06T14:56:21.129Z,95444.36
2023-03-06T14:59:12.578Z,95443.95
2023-03-06T15:01:48.289Z,95439.84
2023-03-06T15:04:36.679Z,95446.01
2023-03-06T15:07:10.833Z,95442.17
2023-03-06T15:09:43.984Z,95444.04
2023-03-06T15:12:34.343Z,95440.09
2023-03-06T15:15:27.801Z,95440.33
2023-03-06T15:17:56.016Z,95439.29
2023-03-06T15:20:41.899Z,95436.92
2023-03-06T15:23:37.847Z,95435.80
2023-03-06T15:26:29.645Z,95434.33
2023-03-06T15:29:17.289Z,95430.98
2023-03-06T15:31:46.230Z,95427.81
2023-03-06T15:34:18.967Z,95431.21
2023-03-06T15:36:48.980Z,95427.89
2023-03-06T15:39:33.910Z,95431.54
2023-03-06T15:42:19.193Z,95436.23
2023-03-06T15:44:51.017Z,95439.47
2023-03-06T15:47:20.233Z,95441.77
2023-03-06T15:49:52.167Z,95441.96
2023-03-06T15:52:21.940Z,95440.45
2023-03-06T15:54:50.419Z,95437.52
2023-03-06T15:57:23.917Z,95440.05
2023-03-06T15:59:55.091Z,95440.15
2023-03-06T16:02:25.699Z,95440.09
2023-03-06T16:04:54.909Z,95442.36
2023-03-06T16:07:23.051Z,95437.70
2023-03-06T16:09:51.538Z,95435.91
2023-03-06T16:12:21.752Z,95435.48
2023-03-06T16:14:49.835Z,95433.36
2023-03-06T16:17:18.038Z,95433.95
2023-03-06T16:19:45.958Z,95431.59
2023-03-06T16:22:45.330Z,95435.41
2023-03-06T16:30:21.193Z,95433.06
2023-03-06T16:33:54.249Z,95429.91
2023-03-06T16:37:28.392Z,95429.23
2023-03-06T16:39:59.538Z,95430.13
2023-03-06T16:42:27.813Z,95428.64
2023-03-06T16:44:55.938Z,95426.27
2023-03-06T16:47:23.875Z,95423.38
2023-03-06T16:49:55.941Z,95418.48
2023-03-06T16:52:24.140Z,95423.84
2023-03-06T16:54:52.298Z,95429.70
2023-03-06T16:57:20.378Z,95427.37
2023-03-06T16:59:48.342Z,95426.47
2023-03-06T17:02:16.210Z,95424.02
2023-03-06T17:04:44.066Z,95423.10
2023-03-06T17:07:11.967Z,95420.08
2023-03-06T17:09:39.803Z,95416.98
2023-03-06T17:12:08.306Z,95414.00
2023-03-06T17:14:38.438Z,95406.25
2023-03-06T17:17:07.087Z,95408.53
2023-03-06T17:19:35.261Z,95407.89
2023-03-06T17:22:03.275Z,95408.45
2023-03-06T17:24:31.207Z,95406.83
2023-03-06T17:26:59.419Z,95402.82
2023-03-06T17:29:27.300Z,95401.27
2023-03-06T17:31:55.303Z,95402.02
2023-03-06T17:34:24.605Z,95400.80
2023-03-06T17:36:52.628Z,95397.89
2023-03-06T17:39:20.543Z,95392.39
2023-03-06T17:41:48.614Z,95388.70
2023-03-06T17:44:16.568Z,95383.66
2023-03-06T17:46:44.578Z,95381.58
2023-03-06T17:49:12.715Z,95380.16
2023-03-06T17:51:40.651Z,95378.44
2023-03-06T17:54:08.817Z,95375.47
2023-03-06T17:56:40.006Z,95377.01
2023-03-06T17:59:07.986Z,95380.95
2023-03-06T18:01:36.538Z,95385.29
2023-03-06T18:04:05.624Z,95387.20
2023-03-06T18:06:34.330Z,95379.40
2023-03-06T18:09:02.607Z,95380.55
2023-03-06T18:11:31.780Z,95377.70
2023-03-06T18:13:59.646Z,95381.05
2023-03-06T18:16:27.587Z,95380.96
2023-03-06T18:18:56.831Z,95383.13
2023-03-06T18:21:25.464Z,95378.28
2023-03-06T18:23:57.378Z,95379.53
2023-03-06T18:26:27.134Z,95377.92
2023-03-06T18:28:57.740Z,95374.98
2023-03-06T18:31:31.241Z,95375.27
2023-03-06T18:34:02.845Z,95377.26
2023-03-06T18:36:32.243Z,95378.09
2023-03-06T18:39:03.828Z,95374.81
2023-03-06T18:41:32.317Z,95370.98
2023-03-06T18:44:01.703Z,95367.33
2023-03-06T18:46:31.848Z,95368.05
2023-03-06T18:48:59.814Z,95366.48
2023-03-06T18:51:28.482Z,95364.77
2023-03-06T18:53:58.064Z,95360.63
2023-03-06T18:56:26.260Z,95359.48
2023-03-06T18:58:54.610Z,95357.12
2023-03-06T19:01:23.550Z,95355.02
2023-03-06T19:03:51.467Z,95358.27
2023-03-06T19:06:20.233Z,95357.58
2023-03-06T19:08:48.094Z,95349.59
2023-03-06T19:11:18.183Z,95348.68
2023-03-06T19:13:46.047Z,95346.00
2023-03-06T19:16:19.903Z,95342.52
2023-03-06T19:18:48.304Z,95341.20
2023-03-06T19:21:19.234Z,95338.98
2023-03-06T19:23:47.399Z,95340.38
2023-03-06T19:26:16.294Z,95338.24
2023-03-06T19:28:45.111Z,95336.67
2023-03-06T19:31:26.643Z,95336.80
2023-03-06T19:33:56.630Z,95332.74
2023-03-06T19:36:28.694Z,95337.31
2023-03-06T19:38:58.868Z,95334.23
2023-03-06T19:41:27.810Z,95329.05
2023-03-06T19:43:58.482Z,95329.78
2023-03-06T19:46:26.854Z,95326.32
2023-03-06T19:48:56.846Z,95324.39
2023-03-06T19:51:26.124Z,95320.82
2023-03-06T19:53:54.581Z,95319.48
2023-03-06T19:56:26.821Z,95316.87
2023-03-06T19:58:55.423Z,95314.15
2023-03-06T20:01:24.984Z,95314.63
2023-03-06T20:03:58.910Z,95310.34
2023-03-06T20:06:29.387Z,95313.35
2023-03-06T20:08:57.640Z,95307.04
2023-03-06T20:11:29.794Z,95305.73
2023-03-06T20:13:59.275Z,95301.61
2023-03-06T20:16:28.923Z,95295.70
2023-03-06T20:18:58.941Z,95290.89
2023-03-06T20:21:29.142Z,95286.89
2023-03-06T20:23:58.142Z,95287.31
2023-03-06T20:26:28.407Z,95281.12
2023-03-06T20:28:56.651Z,95276.41
2023-03-06T20:31:27.114Z,95275.02
2023-03-06T20:33:58.059Z,95273.34
2023-03-06T20:36:30.559Z,95271.25
2023-03-06T20:39:00.310Z,95267.55
2023-03-06T20:41:30.040Z,95262.60
2023-03-06T20:43:59.994Z,95262.56
2023-03-06T20:46:29.393Z,95261.98
2023-03-06T20:48:58.227Z,95258.64
2023-03-06T20:51:31.600Z,95258.31
2023-03-06T20:58:35.362Z,95255.02
2023-03-06T21:02:05.838Z,95264.23
2023-03-06T21:05:29.252Z,95256.81
2023-03-06T21:12:30.287Z,95261.73
2023-03-06T21:15:34.425Z,95260.85
2023-03-06T21:19:15.271Z,95261.94
2023-03-06T21:23:06.566Z,95258.42
2023-03-06T21:26:40.575Z,95256.38
2023-03-06T21:33:49.574Z,95270.66
2023-03-06T21:37:13.361Z,95273.09
2023-03-06T21:40:50.245Z,95258.41
2023-03-06T21:44:23.519Z,95258.02
2023-03-06T21:48:18.295Z,95254.27
2023-03-06T21:51:58.185Z,95253.67
2023-03-06T21:55:37.272Z,95248.91
2023-03-06T21:59:07.214Z,95248.34
2023-03-06T22:02:32.206Z,95244.58
2023-03-06T22:05:53.297Z,95239.63
2023-03-06T22:09:32.206Z,95241.52
2023-03-06T22:13:10.908Z,95236.73
2023-03-06T22:16:39.163Z,95236.48
2023-03-06T22:20:55.310Z,95231.14
2023-03-06T22:28:03.252Z,95229.02
2023-03-06T22:31:29.521Z,95229.34
2023-03-06T22:34:57.806Z,95231.86
2023-03-06T22:39:18.567Z,95238.85
2023-03-06T22:43:00.246Z,95242.58
2023-03-06T22:46:45.547Z,95252.40
2023-03-06T22:50:34.491Z,95251.89
2023-03-06T22:57:24.166Z,95253.94
2023-03-06T23:01:14.313Z,95255.61
2023-03-06T23:04:53.964Z,95260.09
2023-03-06T23:08:28.598Z,95262.55
2023-03-06T23:12:18.068Z,95262.06
2023-03-06T23:16:07.583Z,95270.53
2023-03-06T23:19:45.062Z,95270.23
2023-03-06T23:23:48.647Z,95269.20
2023-03-06T23:28:03.176Z,95270.86
2023-03-06T23:35:18.182Z,95277.55
2023-03-06T23:39:00.251Z,95282.63
2023-03-06T23:46:00.985Z,95287.05
2023-03-06T23:49:45.237Z,95284.73
2023-03-06T23:53:39.520Z,95286.36
2023-03-06T23:57:39.230Z,95282.86
